createdAt,value
2023-12-21T00:17:15.493Z,1.8
2023-12-21T00:22:15.545Z,1.2
2023-12-21T00:27:15.627Z,1.4
2023-12-21T00:32:15.636Z,1.2
2023-12-21T00:37:15.757Z,1.0
2023-12-21T00:47:17.831Z,0.7
2023-12-21T00:52:15.934Z,0.8
2023-12-21T00:57:15.958Z,0.9
2023-12-21T01:02:16.007Z,1.6
2023-12-21T01:07:16.114Z,0.8
2023-12-21T01:17:16.207Z,0.6
2023-12-21T01:22:16.314Z,0.7
2023-12-21T01:27:26.019Z,0.8
2023-12-21T01:42:16.510Z,1.1
2023-12-21T01:47:19.067Z,0.9
2023-12-21T01:52:18.660Z,1.0
2023-12-21T01:57:18.644Z,0.9
2023-12-21T02:02:16.739Z,1.2
2023-12-21T02:07:16.791Z,1.1
2023-12-21T02:12:16.757Z,1.0
2023-12-21T02:17:16.985Z,1.1
2023-12-21T02:22:16.903Z,1.3
2023-12-21T02:27:16.933Z,1.0
2023-12-21T02:32:16.980Z,1.4
2023-12-21T02:37:17.142Z,1.5
2023-12-21T02:42:17.274Z,1.2
2023-12-21T02:47:17.163Z,1.5
2023-12-21T02:52:19.300Z,1.2
2023-12-21T02:57:19.328Z,1.3
2023-12-21T03:02:17.466Z,1.4
2023-12-21T03:07:17.577Z,1.2
2023-12-21T03:12:17.552Z,1.0
2023-12-21T03:17:17.625Z,1.1
2023-12-21T03:22:17.736Z,1.4
2023-12-21T03:27:17.800Z,1.1
2023-12-21T03:32:17.888Z,0.8
2023-12-21T03:37:17.941Z,1.0
2023-12-21T03:47:18.100Z,1.5
2023-12-21T03:52:20.265Z,1.0
2023-12-21T03:57:18.269Z,0.8
2023-12-21T04:02:18.318Z,1.5
2023-12-21T04:07:18.382Z,1.6
2023-12-21T04:17:18.558Z,1.3
2023-12-21T04:22:18.618Z,2.0
2023-12-21T04:27:18.672Z,1.6
2023-12-21T04:32:18.767Z,1.3
2023-12-21T04:37:18.872Z,1.4
2023-12-21T04:42:18.988Z,1.2
2023-12-21T04:47:23.325Z,1.6
2023-12-21T04:52:19.156Z,1.5
2023-12-21T04:57:21.253Z,2.2
2023-12-21T05:02:19.270Z,1.4
2023-12-21T05:07:19.393Z,1.5
2023-12-21T05:12:19.461Z,1.2
2023-12-21T05:22:19.625Z,1.0
2023-12-21T05:27:19.658Z,1.2
2023-12-21T05:32:19.753Z,1.1
2023-12-21T05:37:19.823Z,2.0
2023-12-21T05:42:19.916Z,1.2
2023-12-21T05:47:20.028Z,1.8
2023-12-21T05:52:20.127Z,1.6
2023-12-21T05:57:22.272Z,1.5
2023-12-21T06:02:20.421Z,1.4
2023-12-21T06:07:20.447Z,1.5
2023-12-21T06:12:20.490Z,1.7
2023-12-21T06:17:20.685Z,1.4
2023-12-21T06:22:20.687Z,1.5
2023-12-21T06:27:20.693Z,2.3
2023-12-21T06:32:20.734Z,1.6
2023-12-21T06:37:20.964Z,1.5
2023-12-21T06:42:20.938Z,1.1
2023-12-21T06:47:21.043Z,1.5
2023-12-21T06:52:21.129Z,1.7
2023-12-21T06:57:21.181Z,2.2
2023-12-21T07:02:21.397Z,2.1
2023-12-21T07:07:22.746Z,2.4
2023-12-21T07:12:21.471Z,2.0
2023-12-21T07:17:21.514Z,2.2
2023-12-21T07:22:21.636Z,2.8
2023-12-21T07:32:21.760Z,1.8
2023-12-21T07:37:21.887Z,2.9
2023-12-21T07:42:21.967Z,2.5
2023-12-21T07:47:22.051Z,2.1
2023-12-21T07:52:22.158Z,2.3
2023-12-21T07:57:23.507Z,1.8
2023-12-21T08:02:22.223Z,2.2
2023-12-21T08:07:22.311Z,2.8
2023-12-21T08:12:22.308Z,1.7
2023-12-21T08:17:22.418Z,2.2
2023-12-21T08:22:22.530Z,2.5
2023-12-21T08:27:22.541Z,2.3
2023-12-21T08:37:24.646Z,3.4
2023-12-21T08:42:23.420Z,2.1
2023-12-21T08:47:22.728Z,3.4
2023-12-21T08:52:22.845Z,3.2
2023-12-21T08:57:22.884Z,2.1
2023-12-21T09:02:22.923Z,2.7
2023-12-21T09:07:23.019Z,2.6
2023-12-21T09:12:23.087Z,2.7
2023-12-21T09:17:23.215Z,2.8
2023-12-21T09:27:23.288Z,2.5
2023-12-21T09:32:27.420Z,3.0
2023-12-21T09:37:23.468Z,2.5
2023-12-21T09:42:23.536Z,3.3
2023-12-21T09:52:23.779Z,3.7
2023-12-21T09:57:23.877Z,3.5
2023-12-21T10:02:24.041Z,3.1
2023-12-21T10:07:24.226Z,2.6
2023-12-21T10:12:24.287Z,3.5
2023-12-21T10:17:24.252Z,2.9
2023-12-21T10:22:24.456Z,2.5
2023-12-21T10:27:25.698Z,3.0
2023-12-21T10:32:24.675Z,2.4
2023-12-21T10:37:24.671Z,2.6
2023-12-21T10:47:25.022Z,2.8
2023-12-21T10:52:27.137Z,3.2
2023-12-21T10:57:25.225Z,4.1
2023-12-21T11:02:25.408Z,2.7
2023-12-21T11:07:25.560Z,4.4
2023-12-21T11:12:25.647Z,3.7
2023-12-21T11:17:25.944Z,3.6
2023-12-21T11:22:25.911Z,3.5
2023-12-21T11:27:25.960Z,3.6
2023-12-21T11:37:26.309Z,4.8
2023-12-21T11:42:26.294Z,4.0
2023-12-21T11:47:26.481Z,3.2
2023-12-21T11:52:26.621Z,3.4
2023-12-21T11:57:26.649Z,3.9
2023-12-21T12:02:26.784Z,3.7
2023-12-21T12:07:26.910Z,3.2
2023-12-21T12:12:27.011Z,3.5
2023-12-21T12:17:27.249Z,3.6
2023-12-21T12:22:27.318Z,4.6
2023-12-21T12:27:27.477Z,4.3
2023-12-21T12:32:27.618Z,3.4
2023-12-21T12:37:27.749Z,4.5
2023-12-21T12:42:27.890Z,2.8
2023-12-21T12:47:28.120Z,2.9
2023-12-21T12:52:28.237Z,2.8
2023-12-21T12:57:28.384Z,3.3
2023-12-21T13:02:28.617Z,3.1
2023-12-21T13:07:28.710Z,3.9
2023-12-21T13:12:28.762Z,3.3
2023-12-21T13:17:28.875Z,3.5
2023-12-21T13:22:29.074Z,2.5
2023-12-21T13:27:29.103Z,2.7
2023-12-21T13:32:29.364Z,3.1
2023-12-21T13:47:29.707Z,2.9
2023-12-21T13:52:29.896Z,2.7
2023-12-21T13:57:30.057Z,3.3
2023-12-21T14:02:30.198Z,2.8
2023-12-21T14:12:32.282Z,3.9
2023-12-21T14:17:30.620Z,3.6
2023-12-21T14:22:30.767Z,3.3
2023-12-21T14:27:30.888Z,3.9
2023-12-21T14:32:31.334Z,3.6
2023-12-21T14:37:31.172Z,4.2
2023-12-21T14:42:31.266Z,4.3
2023-12-21T14:47:31.657Z,3.1
2023-12-21T14:52:31.564Z,3.0
2023-12-21T14:57:31.774Z,2.7
2023-12-21T15:02:31.881Z,1.8
2023-12-21T15:12:32.156Z,2.0
2023-12-21T15:17:32.328Z,2.7
2023-12-21T15:22:32.509Z,2.8
2023-12-21T15:27:32.571Z,2.4
2023-12-21T15:32:32.755Z,2.1
2023-12-21T15:37:32.908Z,2.3
2023-12-21T15:42:33.260Z,3.1
2023-12-21T15:47:37.121Z,4.2
2023-12-21T15:52:33.209Z,2.4
2023-12-21T15:57:33.301Z,2.8
2023-12-21T16:02:33.392Z,2.5
2023-12-21T16:07:33.523Z,3.4
2023-12-21T16:12:33.574Z,3.0
2023-12-21T16:17:33.754Z,3.6
2023-12-21T16:22:33.894Z,3.0
2023-12-21T16:27:33.957Z,2.5
2023-12-21T16:32:34.111Z,3.8
2023-12-21T16:37:34.204Z,5.5
2023-12-21T16:42:34.265Z,3.8
2023-12-21T16:47:34.423Z,4.1
2023-12-21T16:52:34.518Z,2.9
2023-12-21T16:57:34.553Z,3.1
2023-12-21T17:07:34.784Z,3.3
2023-12-21T17:12:34.834Z,4.0
2023-12-21T17:17:34.892Z,5.0
2023-12-21T17:22:35.038Z,8.7
2023-12-21T17:27:35.037Z,5.3
2023-12-21T17:32:35.113Z,4.5
2023-12-21T17:37:35.320Z,5.2
2023-12-21T17:42:35.387Z,3.6
2023-12-21T17:47:35.356Z,6.4
2023-12-21T17:52:35.414Z,10.7
2023-12-21T17:57:35.513Z,11.6
2023-12-21T18:02:35.441Z,12.5
2023-12-21T18:07:35.540Z,7.6
2023-12-21T18:12:35.559Z,9.3
2023-12-21T18:17:35.859Z,4.3
2023-12-21T18:22:35.695Z,3.5
2023-12-21T18:27:39.718Z,3.0
2023-12-21T18:32:35.792Z,2.9
2023-12-21T18:37:35.848Z,2.6
2023-12-21T18:42:35.938Z,3.7
2023-12-21T18:47:36.112Z,8.7
2023-12-21T18:52:36.186Z,3.8
2023-12-21T18:57:36.178Z,4.0
2023-12-21T19:02:36.250Z,4.3
2023-12-21T19:07:36.447Z,4.9
2023-12-21T19:12:36.382Z,3.9
2023-12-21T19:17:36.489Z,3.6
2023-12-21T19:22:36.622Z,3.0
2023-12-21T19:27:36.591Z,3.4
2023-12-21T19:32:36.827Z,4.8
2023-12-21T19:37:36.742Z,3.8
2023-12-21T19:52:36.882Z,4.1
2023-12-21T19:57:36.821Z,3.0
2023-12-21T20:02:36.841Z,3.4
2023-12-21T20:07:36.938Z,4.1
2023-12-21T20:12:36.881Z,4.0
2023-12-21T20:17:36.910Z,3.8
2023-12-21T20:22:36.979Z,3.9
2023-12-21T20:27:36.924Z,3.4
2023-12-21T20:32:37.102Z,3.3
2023-12-21T20:37:37.040Z,3.4
2023-12-21T20:42:37.043Z,3.2
2023-12-21T20:47:37.049Z,3.0
2023-12-21T20:52:38.470Z,5.3
2023-12-21T20:57:37.181Z,3.4
2023-12-21T21:02:37.122Z,4.1
2023-12-21T21:07:37.194Z,4.9
2023-12-21T21:12:37.182Z,5.0
2023-12-21T21:17:37.398Z,4.4
2023-12-21T21:27:37.260Z,4.2
2023-12-21T21:32:37.274Z,3.7
2023-12-21T21:37:37.302Z,4.0
2023-12-21T21:42:37.213Z,3.9
2023-12-21T21:47:37.305Z,3.5
2023-12-21T21:52:37.297Z,4.5
2023-12-21T21:57:37.609Z,4.1
2023-12-21T22:02:37.304Z,3.6
2023-12-21T22:07:37.339Z,3.8
2023-12-21T22:12:37.329Z,2.8
2023-12-21T22:17:37.401Z,3.4
2023-12-21T22:22:37.387Z,4.5
2023-12-21T22:27:37.386Z,3.1
2023-12-21T22:32:37.546Z,3.6
2023-12-21T22:47:37.575Z,4.1
2023-12-21T22:52:37.555Z,3.1
2023-12-21T22:57:37.565Z,3.7
2023-12-21T23:02:37.555Z,3.2
2023-12-21T23:07:37.759Z,4.1
2023-12-21T23:12:37.661Z,4.0
2023-12-21T23:17:37.812Z,3.4
2023-12-21T23:22:37.768Z,2.8
2023-12-21T23:27:37.802Z,3.0
2023-12-21T23:37:37.874Z,3.3
2023-12-21T23:42:37.874Z,3.9
2023-12-21T23:47:42.223Z,3.3
2023-12-21T23:52:37.984Z,3.0
2023-12-21T23:57:37.979Z,3.1
